createdAt,value
2019-06-01T00:01:55.591Z,70.44
2019-06-01T00:04:27.441Z,71.78
2019-06-01T00:06:58.124Z,72.54
2019-06-01T00:09:28.695Z,72.69
2019-06-01T00:11:59.301Z,72.57
2019-06-01T00:14:30.299Z,72.21
2019-06-01T00:17:01.026Z,72.05
2019-06-01T00:19:31.606Z,71.76
2019-06-01T00:22:02.196Z,70.71
2019-06-01T00:24:32.916Z,70.60
2019-06-01T00:27:03.821Z,70.51
2019-06-01T00:29:34.423Z,70.10
2019-06-01T00:32:05.166Z,69.98
2019-06-01T00:34:35.804Z,70.06
2019-06-01T00:37:06.403Z,70.05
2019-06-01T00:39:37.087Z,70.68
2019-06-01T00:42:07.714Z,70.66
2019-06-01T00:44:38.392Z,71.65
2019-06-01T00:47:08.969Z,72.37
2019-06-01T00:49:39.543Z,72.12
2019-06-01T00:52:10.235Z,71.68
2019-06-01T00:54:40.821Z,70.96
2019-06-01T00:57:11.411Z,71.10
2019-06-01T00:59:41.999Z,71.02
2019-06-01T01:02:13.658Z,71.06
2019-06-01T01:04:44.394Z,71.15
2019-06-01T01:07:15.036Z,71.56
2019-06-01T01:09:46.802Z,71.32
2019-06-01T01:12:17.569Z,70.98
2019-06-01T01:14:49.208Z,70.70
2019-06-01T01:17:20.850Z,71.32
2019-06-01T01:19:51.946Z,71.43
2019-06-01T01:22:22.584Z,70.62
2019-06-01T01:24:54.484Z,70.54
2019-06-01T01:27:25.319Z,70.50
2019-06-01T01:29:57.030Z,70.98
2019-06-01T01:32:27.758Z,71.26
2019-06-01T01:35:31.796Z,71.02
2019-06-01T01:38:02.375Z,70.55
2019-06-01T01:40:33.338Z,70.58
2019-06-01T01:43:04.597Z,70.20
2019-06-01T01:45:35.190Z,70.21
2019-06-01T01:48:07.305Z,70.92
2019-06-01T01:50:38.006Z,70.41
2019-06-01T01:53:10.273Z,70.58
2019-06-01T01:55:40.847Z,70.70
2019-06-01T01:58:11.428Z,70.89
2019-06-01T02:00:44.955Z,70.98
2019-06-01T02:03:15.831Z,71.56
2019-06-01T02:05:46.627Z,72.17
2019-06-01T02:08:17.342Z,72.18
2019-06-01T02:10:48.295Z,71.86
2019-06-01T02:13:18.893Z,71.47
2019-06-01T02:15:49.581Z,71.38
2019-06-01T02:18:20.648Z,72.27
2019-06-01T02:20:52.258Z,72.19
2019-06-01T02:23:23.308Z,72.29
2019-06-01T02:25:55.061Z,72.90
2019-06-01T02:28:25.623Z,72.69
2019-06-01T02:30:57.826Z,72.72
2019-06-01T02:33:29.636Z,72.13
2019-06-01T02:36:00.842Z,71.62
2019-06-01T02:38:32.690Z,72.04
2019-06-01T02:41:05.162Z,72.59
2019-06-01T02:43:35.624Z,71.59
2019-06-01T02:46:07.452Z,71.68
2019-06-01T02:48:38.257Z,71.51
2019-06-01T02:51:09.812Z,71.96
2019-06-01T02:53:40.390Z,71.59
2019-06-01T02:56:10.970Z,73.56
2019-06-01T02:58:41.652Z,73.35
2019-06-01T03:01:20.852Z,73.40
2019-06-01T03:03:52.362Z,72.96
2019-06-01T03:06:23.477Z,72.75
2019-06-01T03:08:57.706Z,72.20
2019-06-01T03:11:31.439Z,72.77
2019-06-01T03:14:06.609Z,72.64
2019-06-01T03:16:42.502Z,72.85
2019-06-01T03:19:16.646Z,73.05
2019-06-01T03:21:49.913Z,73.08
2019-06-01T03:24:23.897Z,72.04
2019-06-01T03:26:55.921Z,71.84
2019-06-01T03:29:29.444Z,71.66
2019-06-01T03:32:19.030Z,71.47
2019-06-01T03:34:33.019Z,72.43
2019-06-01T03:37:04.874Z,71.64
2019-06-01T03:39:35.853Z,71.69
2019-06-01T03:42:08.008Z,71.59
2019-06-01T03:44:39.957Z,71.56
2019-06-01T03:47:11.835Z,71.96
2019-06-01T03:49:42.716Z,72.71
2019-06-01T03:52:13.486Z,72.21
2019-06-01T03:54:44.153Z,73.20
2019-06-01T03:57:14.737Z,72.71
2019-06-01T03:59:45.411Z,72.31
2019-06-01T04:02:16.090Z,72.28
2019-06-01T04:04:46.881Z,72.14
2019-06-01T04:07:19.630Z,71.45
2019-06-01T04:09:50.391Z,71.34
2019-06-01T04:12:21.062Z,71.32
2019-06-01T04:14:52.958Z,70.98
2019-06-01T04:17:23.617Z,70.88
2019-06-01T04:19:54.396Z,71.02
2019-06-01T04:22:25.094Z,70.93
2019-06-01T04:24:56.844Z,70.47
2019-06-01T04:27:27.653Z,71.05
2019-06-01T04:29:58.404Z,71.78
2019-06-01T04:32:29.202Z,71.44
2019-06-01T04:35:00.008Z,71.82
2019-06-01T04:37:31.953Z,72.94
2019-06-01T04:40:03.325Z,71.96
2019-06-01T04:42:34.206Z,71.76
2019-06-01T04:45:09.037Z,74.49
2019-06-01T04:47:39.571Z,73.65
2019-06-01T04:50:13.042Z,73.16
2019-06-01T04:52:43.767Z,71.34
2019-06-01T04:55:15.190Z,72.81
2019-06-01T04:57:46.029Z,71.76
2019-06-01T05:00:26.005Z,72.17
2019-06-01T05:03:02.231Z,70.90
2019-06-01T05:05:22.399Z,71.35
2019-06-01T05:07:54.157Z,71.39
2019-06-01T05:10:25.808Z,70.71
2019-06-01T05:12:56.589Z,71.22
2019-06-01T05:15:27.265Z,72.00
2019-06-01T05:17:58.039Z,70.19
2019-06-01T05:20:28.664Z,72.37
2019-06-01T05:22:59.395Z,70.90
2019-06-01T05:25:30.360Z,71.50
2019-06-01T05:28:01.123Z,69.38
2019-06-01T05:30:31.835Z,69.56
2019-06-01T05:33:02.542Z,69.27
2019-06-01T05:35:33.206Z,67.30
2019-06-01T05:38:04.095Z,67.72
2019-06-01T05:40:34.852Z,67.05
2019-06-01T05:43:05.642Z,67.00
2019-06-01T05:45:36.323Z,67.55
2019-06-01T05:48:07.092Z,67.03
2019-06-01T05:50:37.887Z,68.63
2019-06-01T05:53:08.982Z,65.74
2019-06-01T05:55:39.688Z,65.93
2019-06-01T05:58:10.920Z,65.93
2019-06-01T06:00:47.482Z,64.75
2019-06-01T06:03:22.174Z,65.85
2019-06-01T06:05:50.739Z,65.40
2019-06-01T06:08:22.214Z,62.10
2019-06-01T06:10:52.988Z,59.58
2019-06-01T06:13:24.162Z,57.96
2019-06-01T06:15:55.019Z,57.43
2019-06-01T06:22:20.414Z,58.03
2019-06-01T06:24:50.908Z,57.77
2019-06-01T06:27:22.704Z,55.81
2019-06-01T06:29:53.445Z,56.68
2019-06-01T06:32:24.160Z,56.16
2019-06-01T06:34:55.812Z,56.40
2019-06-01T06:37:26.421Z,57.80
2019-06-01T06:39:57.116Z,56.40
2019-06-01T06:42:27.914Z,55.75
2019-06-01T06:44:58.491Z,54.61
2019-06-01T06:47:30.515Z,54.31
2019-06-01T06:50:01.173Z,52.96
2019-06-01T06:52:31.773Z,47.41
2019-06-01T06:55:02.492Z,45.30
2019-06-01T06:57:33.079Z,43.27
2019-06-01T07:00:05.469Z,42.85
2019-06-01T07:02:36.706Z,40.64
2019-06-01T07:05:07.942Z,40.64
2019-06-01T07:07:39.649Z,40.56
2019-06-01T07:10:10.694Z,39.94
2019-06-01T07:12:41.408Z,39.05
2019-06-01T07:15:12.391Z,39.43
2019-06-01T07:17:42.979Z,39.39
2019-06-01T07:20:13.683Z,38.70
2019-06-01T07:22:44.537Z,40.22
2019-06-01T07:25:15.163Z,39.73
2019-06-01T07:27:45.834Z,39.72
2019-06-01T07:30:16.808Z,39.76
2019-06-01T07:32:47.363Z,40.15
2019-06-01T07:35:17.940Z,38.13
2019-06-01T07:37:48.607Z,39.13
2019-06-01T07:40:21.000Z,38.61
2019-06-01T07:42:51.634Z,38.94
2019-06-01T07:45:22.869Z,38.62
2019-06-01T07:47:54.737Z,38.72
2019-06-01T07:50:25.976Z,37.31
2019-06-01T07:52:56.846Z,37.49
2019-06-01T07:55:27.640Z,37.61
2019-06-01T07:57:58.288Z,37.02
2019-06-01T08:00:29.871Z,36.68
2019-06-01T08:03:00.557Z,36.86
2019-06-01T08:05:32.204Z,37.42
2019-06-01T08:08:02.900Z,36.76
2019-06-01T08:10:33.543Z,37.29
2019-06-01T08:13:04.188Z,37.50
2019-06-01T08:15:36.456Z,36.34
2019-06-01T08:18:07.551Z,37.27
2019-06-01T08:20:38.145Z,37.18
2019-06-01T08:23:08.869Z,37.24
2019-06-01T08:25:39.504Z,36.97
2019-06-01T08:28:10.384Z,36.65
2019-06-01T08:30:40.950Z,36.63
2019-06-01T08:33:12.611Z,36.79
2019-06-01T08:35:43.335Z,37.83
2019-06-01T08:38:13.979Z,37.71
2019-06-01T08:40:44.619Z,38.01
2019-06-01T08:43:15.392Z,37.76
2019-06-01T08:45:46.790Z,37.94
2019-06-01T08:48:17.889Z,37.16
2019-06-01T08:50:50.249Z,37.53
2019-06-01T08:53:21.109Z,35.99
2019-06-01T08:55:51.654Z,35.85
2019-06-01T08:58:22.386Z,34.36
2019-06-01T09:00:53.012Z,34.31
2019-06-01T09:03:23.681Z,34.31
2019-06-01T09:05:54.250Z,35.44
2019-06-01T09:08:26.029Z,36.50
2019-06-01T09:10:57.304Z,35.17
2019-06-01T09:13:46.072Z,35.25
2019-06-01T09:16:16.675Z,36.22
2019-06-01T09:18:47.337Z,38.23
2019-06-01T09:21:18.005Z,36.86
2019-06-01T09:23:48.616Z,35.64
2019-06-01T09:26:20.576Z,35.90
2019-06-01T09:28:51.156Z,35.99
2019-06-01T09:31:22.140Z,35.32
2019-06-01T09:33:52.769Z,37.23
2019-06-01T09:36:23.337Z,38.74
2019-06-01T09:38:53.939Z,38.82
2019-06-01T09:41:24.522Z,38.43
2019-06-01T09:43:55.108Z,37.84
2019-06-01T09:46:26.897Z,37.73
2019-06-01T09:48:57.735Z,38.39
2019-06-01T09:51:29.476Z,39.26
2019-06-01T09:54:00.278Z,39.61
2019-06-01T09:56:33.497Z,39.69
2019-06-01T09:59:03.620Z,38.46
2019-06-01T10:01:34.450Z,39.50
2019-06-01T10:04:05.403Z,40.44
2019-06-01T10:06:36.701Z,41.09
2019-06-01T10:09:08.978Z,41.23
2019-06-01T10:11:39.549Z,42.98
2019-06-01T10:14:10.121Z,43.15
2019-06-01T10:16:40.693Z,43.15
2019-06-01T10:19:11.361Z,43.37
2019-06-01T10:21:42.202Z,42.94
2019-06-01T10:24:12.996Z,43.09
2019-06-01T10:26:43.619Z,41.65
2019-06-01T10:29:14.322Z,43.35
2019-06-01T10:31:45.011Z,42.14
2019-06-01T10:34:15.598Z,42.88
2019-06-01T10:36:46.170Z,43.59
2019-06-01T10:39:19.629Z,45.03
2019-06-01T10:41:49.129Z,44.49
2019-06-01T10:44:19.727Z,46.15
2019-06-01T10:46:50.395Z,46.12
2019-06-01T10:49:21.072Z,47.06
2019-06-01T10:51:51.827Z,47.14
2019-06-01T10:54:22.508Z,46.45
2019-06-01T10:56:53.425Z,47.81
2019-06-01T10:59:24.214Z,47.74
2019-06-01T11:01:54.794Z,48.15
2019-06-01T11:04:26.788Z,48.95
2019-06-01T11:07:03.418Z,49.48
2019-06-01T11:09:34.868Z,48.40
2019-06-01T11:12:05.801Z,48.80
2019-06-01T11:14:37.073Z,48.63
2019-06-01T11:17:07.902Z,47.71
2019-06-01T11:19:39.466Z,47.46
2019-06-01T11:22:10.458Z,46.08
2019-06-01T11:24:41.587Z,44.77
2019-06-01T11:27:12.415Z,45.26
2019-06-01T11:29:50.751Z,43.72
2019-06-01T11:32:15.284Z,43.71
2019-06-01T11:34:46.117Z,44.60
2019-06-01T11:37:16.806Z,44.13
2019-06-01T11:39:47.453Z,42.42
2019-06-01T11:42:20.034Z,43.52
2019-06-01T11:44:50.332Z,42.39
2019-06-01T11:47:20.988Z,42.33
2019-06-01T11:49:51.690Z,42.90
2019-06-01T11:52:22.364Z,42.44
2019-06-01T11:54:52.940Z,43.58
2019-06-01T11:57:24.559Z,42.81
2019-06-01T11:59:55.257Z,43.84
2019-06-01T12:02:25.817Z,43.62
2019-06-01T12:04:56.503Z,42.62
2019-06-01T12:07:27.372Z,41.51
2019-06-01T12:09:58.040Z,40.99
2019-06-01T12:12:28.757Z,39.90
2019-06-01T12:14:59.325Z,38.89
2019-06-01T12:17:30.016Z,37.91
2019-06-01T12:20:00.600Z,39.61
2019-06-01T12:22:31.394Z,39.21
2019-06-01T12:25:02.327Z,39.43
2019-06-01T12:27:33.085Z,38.68
2019-06-01T12:30:07.732Z,38.58
2019-06-01T12:32:38.324Z,39.33
2019-06-01T12:35:09.477Z,38.20
2019-06-01T12:38:00.888Z,38.52
2019-06-01T12:40:13.759Z,38.13
2019-06-01T12:42:45.940Z,40.68
2019-06-01T12:45:22.836Z,40.20
2019-06-01T12:47:55.517Z,42.45
2019-06-01T12:50:23.468Z,39.06
2019-06-01T12:52:54.209Z,40.41
2019-06-01T12:55:24.899Z,40.37
2019-06-01T12:57:55.664Z,40.50
2019-06-01T13:00:26.406Z,39.22
2019-06-01T13:03:07.198Z,39.67
2019-06-01T13:05:30.470Z,40.43
2019-06-01T13:08:02.996Z,41.26
2019-06-01T13:10:33.459Z,41.64
2019-06-01T13:13:04.050Z,41.42
2019-06-01T13:15:34.764Z,41.48
2019-06-01T13:18:05.338Z,42.30
2019-06-01T13:20:35.921Z,42.16
2019-06-01T13:23:06.601Z,41.96
2019-06-01T13:25:37.378Z,41.41
2019-06-01T13:28:08.249Z,40.58
2019-06-01T13:30:38.941Z,40.43
2019-06-01T13:33:09.614Z,40.05
2019-06-01T13:35:40.305Z,37.95
2019-06-01T13:38:12.490Z,38.94
2019-06-01T13:40:43.265Z,40.03
2019-06-01T13:43:14.435Z,39.75
2019-06-01T13:45:45.289Z,40.95
2019-06-01T13:48:15.891Z,41.02
2019-06-01T13:50:47.766Z,41.11
2019-06-01T13:53:18.403Z,42.62
2019-06-01T13:55:50.618Z,42.25
2019-06-01T13:58:21.297Z,40.99
2019-06-01T14:00:53.216Z,43.11
2019-06-01T14:03:24.037Z,41.20
2019-06-01T14:05:55.800Z,41.29
2019-06-01T14:08:29.292Z,40.25
2019-06-01T14:11:00.412Z,41.36
2019-06-01T14:13:31.266Z,42.25
2019-06-01T14:16:01.876Z,39.58
2019-06-01T14:18:32.612Z,40.04
2019-06-01T14:21:03.356Z,40.72
2019-06-01T14:23:34.418Z,40.35
2019-06-01T14:26:05.356Z,40.82
2019-06-01T14:28:35.939Z,39.14
2019-06-01T14:31:06.772Z,39.85
2019-06-01T14:33:37.358Z,40.43
2019-06-01T14:36:08.362Z,41.35
2019-06-01T14:38:46.827Z,40.40
2019-06-01T14:41:14.932Z,38.31
2019-06-01T14:43:46.887Z,39.72
2019-06-01T14:46:17.665Z,37.08
2019-06-01T14:48:49.350Z,38.45
2019-06-01T14:51:20.065Z,38.50
2019-06-01T14:53:51.660Z,38.53
2019-06-01T14:56:22.462Z,35.60
2019-06-01T14:58:53.988Z,36.90
2019-06-01T15:01:32.432Z,37.16
2019-06-01T15:03:59.728Z,38.52
2019-06-01T15:06:30.766Z,36.49
2019-06-01T15:09:15.557Z,37.32
2019-06-01T15:11:35.426Z,37.12
2019-06-01T15:14:07.048Z,37.86
2019-06-01T15:16:37.751Z,38.61
2019-06-01T15:19:08.376Z,38.92
2019-06-01T15:21:39.226Z,37.10
2019-06-01T15:24:09.917Z,34.92
2019-06-01T15:26:40.725Z,38.78
2019-06-01T15:29:11.374Z,38.16
2019-06-01T15:31:42.071Z,38.04
2019-06-01T15:34:12.626Z,38.31
2019-06-01T15:36:43.381Z,38.29
2019-06-01T15:39:24.383Z,38.18
2019-06-01T15:41:46.289Z,37.88
2019-06-01T15:44:17.586Z,39.89
2019-06-01T15:46:48.443Z,39.41
2019-06-01T15:49:22.079Z,38.71
2019-06-01T15:51:53.727Z,39.56
2019-06-01T15:54:27.014Z,38.09
2019-06-01T15:56:58.514Z,39.76
2019-06-01T15:59:29.200Z,39.63
2019-06-01T16:02:13.358Z,40.65
2019-06-01T16:04:55.156Z,39.67
2019-06-01T16:07:33.194Z,39.63
2019-06-01T16:10:13.721Z,39.78
2019-06-01T16:13:04.450Z,40.34
2019-06-01T16:15:35.438Z,38.66
2019-06-01T16:18:06.109Z,40.47
2019-06-01T16:20:36.791Z,39.71
2019-06-01T16:23:07.864Z,39.22
2019-06-01T16:25:38.580Z,40.25
2019-06-01T16:28:09.258Z,39.99
2019-06-01T16:30:41.681Z,40.94
2019-06-01T17:30:31.863Z,46.71
2019-06-01T17:33:02.625Z,46.08
2019-06-01T17:35:35.982Z,45.99
2019-06-01T17:38:07.300Z,46.35
2019-06-01T17:40:42.545Z,46.05
2019-06-01T17:43:10.688Z,46.56
2019-06-01T17:45:41.476Z,46.64
2019-06-01T17:48:24.719Z,46.94
2019-06-01T17:50:44.460Z,47.44
2019-06-01T17:53:15.146Z,47.21
2019-06-01T17:55:46.413Z,47.16
2019-06-01T17:58:17.570Z,47.00
2019-06-01T18:00:48.677Z,47.48
2019-06-01T18:03:19.363Z,47.47
2019-06-01T18:05:50.186Z,46.91
2019-06-01T18:08:21.523Z,47.78
2019-06-01T18:10:54.562Z,47.41
2019-06-01T18:13:24.840Z,47.44
2019-06-01T18:15:55.934Z,48.51
2019-06-01T18:18:26.722Z,48.87
2019-06-01T18:20:57.457Z,48.45
2019-06-01T18:23:28.195Z,48.90
2019-06-01T18:25:58.969Z,49.21
2019-06-01T18:28:30.297Z,49.95
2019-06-01T18:31:02.584Z,49.87
2019-06-01T18:33:34.621Z,50.37
2019-06-01T18:36:07.455Z,50.53
2019-06-01T18:38:39.347Z,50.83
2019-06-01T18:41:18.293Z,52.32
2019-06-01T18:43:43.391Z,51.82
2019-06-01T18:46:14.456Z,52.01
2019-06-01T18:48:45.315Z,52.00
2019-06-01T18:51:16.431Z,52.74
2019-06-01T18:53:47.161Z,53.46
2019-06-01T18:56:17.939Z,53.60
2019-06-01T18:58:50.125Z,54.31
2019-06-01T19:01:21.415Z,55.39
2019-06-01T19:03:52.439Z,55.77
2019-06-01T19:06:23.152Z,55.63
2019-06-01T19:08:54.565Z,56.23
2019-06-01T19:11:35.420Z,55.95
2019-06-01T19:14:00.354Z,56.18
2019-06-01T19:16:31.980Z,56.18
2019-06-01T19:19:04.287Z,55.61
2019-06-01T19:21:35.746Z,55.63
2019-06-01T19:24:06.490Z,55.90
2019-06-01T19:26:38.269Z,57.01
2019-06-01T19:29:09.139Z,57.15
2019-06-01T19:31:39.966Z,57.71
2019-06-01T19:34:11.006Z,58.57
2019-06-01T19:36:44.028Z,59.73
2019-06-01T19:39:15.523Z,58.79
2019-06-01T19:41:47.867Z,59.57
2019-06-01T19:44:19.124Z,59.87
2019-06-01T19:46:50.141Z,60.20
2019-06-01T19:49:21.544Z,62.07
2019-06-01T19:51:52.955Z,61.14
2019-06-01T19:54:23.765Z,61.06
2019-06-01T19:56:54.476Z,61.11
2019-06-01T19:59:25.432Z,61.77
2019-06-01T20:01:56.317Z,61.81
2019-06-01T20:04:27.756Z,61.95
2019-06-01T20:06:59.016Z,61.60
2019-06-01T20:09:31.771Z,61.88
2019-06-01T20:12:10.497Z,62.03
2019-06-01T20:14:35.961Z,62.71
2019-06-01T20:17:08.595Z,62.95
2019-06-01T20:19:42.425Z,63.35
2019-06-01T20:22:13.471Z,63.43
2019-06-01T20:24:50.131Z,63.50
2019-06-01T20:27:21.607Z,63.94
2019-06-01T20:29:53.926Z,64.36
2019-06-01T20:32:24.750Z,64.40
2019-06-01T20:34:58.747Z,64.26
2019-06-01T20:37:30.217Z,64.77
2019-06-01T20:40:01.174Z,65.02
2019-06-01T20:42:33.034Z,64.71
2019-06-01T20:45:05.915Z,65.33
2019-06-01T20:47:37.015Z,65.46
2019-06-01T20:50:09.121Z,65.35
2019-06-01T20:52:39.699Z,65.33
2019-06-01T20:55:12.884Z,65.32
2019-06-01T20:57:43.515Z,65.37
2019-06-01T21:00:15.918Z,65.79
2019-06-01T21:02:47.263Z,65.58
2019-06-01T21:05:22.012Z,65.34
2019-06-01T21:07:56.877Z,65.99
2019-06-01T21:10:25.182Z,65.89
2019-06-01T21:12:55.960Z,66.86
2019-06-01T21:15:26.676Z,66.24
2019-06-01T21:17:57.270Z,66.24
2019-06-01T21:20:30.025Z,66.44
2019-06-01T21:23:00.923Z,66.89
2019-06-01T21:25:31.694Z,66.86
2019-06-01T21:28:02.477Z,66.81
2019-06-01T21:30:33.223Z,66.70
2019-06-01T21:33:03.943Z,66.95
2019-06-01T21:35:34.664Z,66.73
2019-06-01T21:38:07.685Z,67.13
2019-06-01T21:40:38.522Z,67.36
2019-06-01T21:43:23.500Z,67.38
2019-06-01T21:45:42.063Z,68.14
2019-06-01T21:48:12.833Z,67.50
2019-06-01T21:50:43.907Z,67.46
2019-06-01T21:53:16.198Z,66.96
2019-06-01T21:55:46.889Z,66.78
2019-06-01T21:58:18.800Z,66.61
2019-06-01T22:00:49.951Z,67.39
2019-06-01T22:03:21.119Z,66.97
2019-06-01T22:05:51.916Z,67.10
2019-06-01T22:08:23.254Z,66.36
2019-06-01T22:10:54.089Z,66.58
2019-06-01T22:13:27.095Z,66.36
2019-06-01T22:15:57.461Z,67.71
2019-06-01T22:18:28.145Z,68.06
2019-06-01T22:20:58.827Z,66.83
2019-06-01T22:23:29.543Z,66.72
2019-06-01T22:26:01.176Z,65.95
2019-06-01T22:28:31.857Z,66.31
2019-06-01T22:31:02.556Z,66.30
2019-06-01T22:33:33.252Z,66.51
2019-06-01T22:36:04.017Z,66.67
2019-06-01T22:38:34.996Z,66.38
2019-06-01T22:41:05.625Z,66.83
2019-06-01T22:43:45.897Z,66.18
2019-06-01T22:46:08.709Z,66.48
2019-06-01T22:48:39.412Z,66.98
2019-06-01T22:51:10.091Z,66.96
2019-06-01T22:53:40.910Z,66.49
2019-06-01T22:56:11.593Z,67.42
2019-06-01T22:58:42.365Z,66.88
2019-06-01T23:01:13.057Z,66.60
2019-06-01T23:03:43.738Z,66.53
2019-06-01T23:06:16.008Z,66.42
2019-06-01T23:08:46.809Z,67.25
2019-06-01T23:11:17.508Z,68.24
2019-06-01T23:13:53.368Z,68.36
2019-06-01T23:16:21.567Z,67.74
2019-06-01T23:18:52.260Z,68.77
2019-06-01T23:21:23.710Z,67.89
2019-06-01T23:23:54.584Z,67.60
2019-06-01T23:26:26.157Z,67.30
2019-06-01T23:28:57.130Z,67.62
2019-06-01T23:31:28.492Z,67.55
2019-06-01T23:33:59.244Z,67.00
2019-06-01T23:36:30.676Z,68.64
2019-06-01T23:39:02.561Z,68.08
2019-06-01T23:41:33.305Z,69.50
2019-06-01T23:44:11.861Z,68.52
2019-06-01T23:46:36.859Z,67.87
2019-06-01T23:49:07.576Z,67.53
2019-06-01T23:51:38.280Z,68.00
2019-06-01T23:54:08.962Z,67.54
2019-06-01T23:56:39.647Z,67.65
2019-06-01T23:59:10.337Z,68.23
